createdAt,value
2022-10-22T00:00:52.965Z,61.73
2022-10-22T00:03:38.845Z,54.77
2022-10-22T00:06:06.843Z,50.70
2022-10-22T00:08:34.742Z,58.10
2022-10-22T00:11:09.861Z,62.40
2022-10-22T00:13:37.699Z,55.03
2022-10-22T00:16:05.167Z,77.97
2022-10-22T00:18:33.419Z,81.73
2022-10-22T00:21:00.577Z,67.10
2022-10-22T00:23:28.569Z,52.13
2022-10-22T00:25:56.305Z,64.07
2022-10-22T00:28:24.691Z,54.47
2022-10-22T00:30:59.657Z,59.53
2022-10-22T00:33:28.823Z,53.40
2022-10-22T00:35:56.468Z,59.73
2022-10-22T00:38:23.918Z,54.97
2022-10-22T00:40:51.515Z,71.50
2022-10-22T00:43:20.384Z,59.67
2022-10-22T00:45:47.682Z,52.30
2022-10-22T00:48:17.749Z,58.20
2022-10-22T00:51:13.547Z,59.87
2022-10-22T00:53:51.005Z,52.83
2022-10-22T00:56:18.705Z,60.83
2022-10-22T00:58:49.267Z,61.67
2022-10-22T01:01:21.711Z,51.07
2022-10-22T01:03:50.058Z,62.23
2022-10-22T01:06:27.413Z,48.40
2022-10-22T01:09:15.068Z,60.47
2022-10-22T01:12:23.319Z,61.63
2022-10-22T01:14:59.715Z,54.50
2022-10-22T01:17:50.712Z,48.77
2022-10-22T01:20:56.928Z,59.80
2022-10-22T01:24:00.005Z,56.23
2022-10-22T01:26:49.275Z,61.27
2022-10-22T01:29:22.429Z,66.17
2022-10-22T01:32:12.887Z,62.43
2022-10-22T01:34:43.936Z,53.07
2022-10-22T01:37:13.967Z,59.17
2022-10-22T01:39:44.816Z,51.37
2022-10-22T01:42:13.801Z,60.50
2022-10-22T01:44:41.612Z,56.20
2022-10-22T01:47:36.688Z,60.43
2022-10-22T01:50:25.999Z,65.30
2022-10-22T01:53:17.762Z,54.80
2022-10-22T01:56:08.833Z,72.37
2022-10-22T01:58:54.134Z,48.00
2022-10-22T02:01:37.260Z,53.03
2022-10-22T02:04:17.976Z,54.33
2022-10-22T02:06:47.986Z,65.40
2022-10-22T02:09:17.906Z,46.77
2022-10-22T02:11:46.416Z,55.00
2022-10-22T02:14:16.086Z,55.30
2022-10-22T02:16:46.252Z,53.77
2022-10-22T02:19:38.421Z,61.60
2022-10-22T02:22:05.843Z,50.27
2022-10-22T02:24:33.426Z,56.67
2022-10-22T02:27:25.932Z,56.50
2022-10-22T02:30:11.699Z,53.10
2022-10-22T02:32:58.923Z,50.10
2022-10-22T02:35:29.167Z,63.53
2022-10-22T02:37:58.669Z,58.93
2022-10-22T02:40:27.653Z,57.67
2022-10-22T02:42:55.275Z,62.20
2022-10-22T02:45:23.404Z,57.97
2022-10-22T02:47:51.597Z,59.50
2022-10-22T02:50:18.963Z,73.90
2022-10-22T02:52:46.629Z,80.20
2022-10-22T02:55:14.468Z,59.97
2022-10-22T02:57:42.343Z,59.57
2022-10-22T03:00:11.303Z,64.10
2022-10-22T03:02:38.795Z,58.83
2022-10-22T03:05:06.744Z,60.00
2022-10-22T03:07:34.683Z,52.53
2022-10-22T03:10:02.129Z,71.30
2022-10-22T03:12:29.907Z,61.17
2022-10-22T03:14:57.261Z,63.90
2022-10-22T03:17:24.421Z,72.40
2022-10-22T03:19:51.798Z,60.53
2022-10-22T03:22:26.879Z,57.53
2022-10-22T03:24:58.523Z,59.83
2022-10-22T03:27:28.463Z,63.90
2022-10-22T03:29:58.063Z,50.13
2022-10-22T03:32:25.268Z,52.93
2022-10-22T03:34:52.691Z,65.77
2022-10-22T03:37:20.513Z,50.73
2022-10-22T03:39:48.107Z,53.20
2022-10-22T03:42:16.370Z,55.47
2022-10-22T03:44:44.041Z,54.23
2022-10-22T03:47:11.802Z,55.07
2022-10-22T03:49:39.274Z,60.77
2022-10-22T03:52:12.063Z,56.90
2022-10-22T03:54:40.694Z,52.70
2022-10-22T03:57:08.760Z,54.23
2022-10-22T03:59:41.934Z,76.13
2022-10-22T04:02:10.415Z,51.40
2022-10-22T04:04:38.136Z,51.43
2022-10-22T04:07:06.878Z,57.23
2022-10-22T04:09:34.892Z,62.40
2022-10-22T04:12:02.419Z,59.53
2022-10-22T04:14:29.906Z,59.23
2022-10-22T04:16:57.639Z,58.13
2022-10-22T04:19:25.232Z,51.20
2022-10-22T04:21:52.363Z,52.47
2022-10-22T04:24:19.769Z,52.07
2022-10-22T04:26:47.086Z,66.17
2022-10-22T04:29:16.123Z,46.90
2022-10-22T04:31:43.839Z,45.13
2022-10-22T04:34:11.336Z,52.47
2022-10-22T04:36:38.617Z,63.53
2022-10-22T04:39:06.373Z,52.60
2022-10-22T04:41:37.815Z,78.60
2022-10-22T04:44:06.586Z,60.73
2022-10-22T04:46:35.480Z,69.37
2022-10-22T04:49:05.720Z,59.07
2022-10-22T04:51:33.286Z,132.00
2022-10-22T04:54:00.979Z,99.70
2022-10-22T04:56:30.545Z,72.23
2022-10-22T04:59:03.739Z,75.37
2022-10-22T05:01:42.698Z,98.37
2022-10-22T05:04:13.694Z,64.37
2022-10-22T05:06:41.329Z,67.20
2022-10-22T05:09:13.736Z,65.70
2022-10-22T05:11:45.581Z,49.47
2022-10-22T05:14:13.565Z,70.23
2022-10-22T05:16:41.112Z,77.47
2022-10-22T05:19:09.074Z,120.83
2022-10-22T05:21:37.929Z,107.83
2022-10-22T05:24:05.788Z,77.90
2022-10-22T05:26:33.169Z,98.20
2022-10-22T05:29:00.572Z,85.27
2022-10-22T05:31:29.151Z,89.43
2022-10-22T05:33:56.671Z,90.10
2022-10-22T05:36:24.062Z,103.57
2022-10-22T05:38:51.770Z,82.90
2022-10-22T05:41:25.099Z,90.40
2022-10-22T05:43:55.234Z,110.87
2022-10-22T05:46:24.523Z,135.10
2022-10-22T05:48:54.314Z,107.30
2022-10-22T05:51:22.418Z,88.70
2022-10-22T05:53:53.777Z,115.20
2022-10-22T05:56:22.841Z,104.60
2022-10-22T05:58:51.277Z,104.17
2022-10-22T06:01:30.737Z,103.43
2022-10-22T06:04:01.482Z,120.07
2022-10-22T06:06:44.836Z,100.77
2022-10-22T06:09:20.141Z,103.13
2022-10-22T06:11:48.440Z,97.70
2022-10-22T06:14:17.247Z,100.17
2022-10-22T06:16:44.739Z,117.57
2022-10-22T06:19:14.130Z,104.00
2022-10-22T06:21:41.768Z,136.90
2022-10-22T06:24:10.617Z,117.77
2022-10-22T06:26:39.000Z,121.23
2022-10-22T06:29:06.516Z,107.40
2022-10-22T06:31:37.625Z,92.37
2022-10-22T06:34:07.548Z,126.57
2022-10-22T06:36:35.267Z,104.47
2022-10-22T06:39:03.691Z,121.93
2022-10-22T06:41:31.730Z,115.93
2022-10-22T06:44:00.492Z,132.20
2022-10-22T06:46:28.256Z,110.27
2022-10-22T06:48:59.859Z,108.37
2022-10-22T06:51:28.118Z,115.43
2022-10-22T06:53:57.709Z,127.83
2022-10-22T06:56:27.186Z,109.53
2022-10-22T06:58:56.316Z,113.73
2022-10-22T07:01:27.141Z,114.63
2022-10-22T07:03:55.405Z,118.77
2022-10-22T07:06:24.570Z,111.37
2022-10-22T07:08:53.609Z,108.63
2022-10-22T07:11:23.812Z,125.37
2022-10-22T07:13:54.060Z,101.10
2022-10-22T07:16:21.757Z,147.57
2022-10-22T07:18:49.476Z,110.60
2022-10-22T07:21:18.830Z,109.63
2022-10-22T07:23:46.640Z,107.67
2022-10-22T07:26:16.432Z,100.63
2022-10-22T07:28:44.316Z,92.57
2022-10-22T07:31:13.405Z,106.03
2022-10-22T07:33:41.334Z,104.63
2022-10-22T07:36:17.558Z,96.17
2022-10-22T07:38:46.748Z,101.43
2022-10-22T07:41:15.913Z,100.87
2022-10-22T07:43:43.860Z,102.80
2022-10-22T07:46:11.684Z,88.47
2022-10-22T07:48:39.462Z,96.20
2022-10-22T07:51:07.137Z,105.47
2022-10-22T07:53:35.145Z,86.07
2022-10-22T07:56:02.902Z,88.57
2022-10-22T07:58:30.579Z,86.17
2022-10-22T08:01:01.123Z,84.93
2022-10-22T08:03:29.515Z,79.70
2022-10-22T08:05:57.034Z,84.93
2022-10-22T08:08:28.306Z,75.80
2022-10-22T08:10:59.891Z,71.27
2022-10-22T08:13:28.822Z,69.50
2022-10-22T08:15:57.744Z,72.03
2022-10-22T08:18:25.946Z,64.67
2022-10-22T08:20:53.666Z,65.43
2022-10-22T08:23:25.912Z,70.30
2022-10-22T08:25:57.297Z,72.27
2022-10-22T08:28:25.042Z,55.83
2022-10-22T08:30:52.650Z,56.27
2022-10-22T08:33:20.375Z,67.93
2022-10-22T08:35:52.008Z,60.00
2022-10-22T08:38:20.246Z,55.73
2022-10-22T08:40:54.065Z,54.40
2022-10-22T08:43:45.397Z,55.60
2022-10-22T08:46:29.871Z,46.97
2022-10-22T08:49:04.758Z,49.37
2022-10-22T08:51:36.105Z,50.53
2022-10-22T08:54:22.977Z,48.37
2022-10-22T08:57:09.528Z,48.47
2022-10-22T09:00:02.247Z,47.93
2022-10-22T09:03:04.379Z,47.50
2022-10-22T09:05:46.943Z,45.80
2022-10-22T09:08:17.597Z,41.20
2022-10-22T09:11:12.578Z,41.37
2022-10-22T09:13:45.970Z,47.87
2022-10-22T09:16:38.670Z,40.47
2022-10-22T09:19:25.442Z,36.73
2022-10-22T09:22:11.728Z,33.50
2022-10-22T09:24:53.458Z,38.30
2022-10-22T09:27:26.771Z,33.67
2022-10-22T09:29:54.124Z,34.00
2022-10-22T09:32:22.038Z,39.30
2022-10-22T09:34:50.846Z,31.13
2022-10-22T09:37:20.005Z,33.25
2022-10-22T09:39:51.800Z,33.50
2022-10-22T09:42:21.197Z,36.10
2022-10-22T09:45:00.785Z,42.80
2022-10-22T09:48:00.645Z,33.80
2022-10-22T09:50:57.345Z,36.37
2022-10-22T09:53:43.637Z,36.03
2022-10-22T09:56:28.437Z,37.33
2022-10-22T09:58:58.791Z,39.47
2022-10-22T10:01:30.160Z,36.70
2022-10-22T10:04:11.580Z,42.17
2022-10-22T10:06:42.893Z,41.07
2022-10-22T10:09:20.570Z,43.27
2022-10-22T10:12:19.665Z,39.50
2022-10-22T10:15:10.758Z,38.27
2022-10-22T10:17:57.090Z,45.43
2022-10-22T10:20:46.605Z,42.87
2022-10-22T10:23:36.305Z,50.97
2022-10-22T10:26:14.207Z,40.97
2022-10-22T10:29:14.086Z,43.23
2022-10-22T10:32:15.478Z,47.03
2022-10-22T10:35:15.353Z,54.10
2022-10-22T10:38:24.721Z,48.33
2022-10-22T10:41:10.573Z,47.63
2022-10-22T10:44:20.807Z,51.90
2022-10-22T10:46:59.230Z,53.77
2022-10-22T10:49:33.658Z,55.27
2022-10-22T10:52:21.359Z,59.77
2022-10-22T10:55:04.297Z,57.63
2022-10-22T10:57:56.934Z,66.33
2022-10-22T11:00:24.744Z,60.77
2022-10-22T11:03:01.316Z,64.27
2022-10-22T11:05:59.221Z,57.40
2022-10-22T11:08:34.438Z,64.03
2022-10-22T11:11:12.287Z,61.57
2022-10-22T11:14:02.089Z,64.33
2022-10-22T11:16:46.436Z,74.80
2022-10-22T11:19:46.160Z,63.90
2022-10-22T11:22:13.283Z,65.13
2022-10-22T11:24:49.181Z,58.47
2022-10-22T11:27:49.028Z,68.47
2022-10-22T11:30:21.051Z,64.57
2022-10-22T11:33:03.208Z,64.90
2022-10-22T11:35:44.692Z,60.80
2022-10-22T11:38:17.519Z,59.33
2022-10-22T11:41:21.928Z,63.77
2022-10-22T11:43:55.609Z,61.50
2022-10-22T11:46:23.014Z,61.27
2022-10-22T11:49:18.531Z,58.23
2022-10-22T11:51:48.173Z,69.40
2022-10-22T11:54:37.742Z,64.97
2022-10-22T11:57:24.543Z,66.00
2022-10-22T11:59:56.508Z,66.50
2022-10-22T12:02:30.639Z,77.90
2022-10-22T12:05:37.226Z,69.63
2022-10-22T12:08:17.864Z,69.80
2022-10-22T12:11:04.055Z,72.63
2022-10-22T12:13:50.919Z,67.80
2022-10-22T12:16:27.303Z,64.17
2022-10-22T12:19:22.226Z,68.33
2022-10-22T12:22:03.334Z,71.10
2022-10-22T12:24:35.300Z,65.57
2022-10-22T12:27:03.713Z,63.17
2022-10-22T12:29:33.038Z,65.03
2022-10-22T12:32:04.781Z,56.47
2022-10-22T12:34:32.327Z,56.97
2022-10-22T12:36:59.912Z,58.47
2022-10-22T12:39:28.154Z,56.07
2022-10-22T12:41:55.825Z,54.50
2022-10-22T12:44:22.986Z,54.17
2022-10-22T12:46:54.520Z,63.60
2022-10-22T12:49:42.431Z,61.40
2022-10-22T12:52:15.948Z,45.73
2022-10-22T12:54:46.640Z,48.13
2022-10-22T12:57:18.601Z,51.97
2022-10-22T12:59:50.977Z,48.27
2022-10-22T13:02:25.478Z,46.73
2022-10-22T13:05:34.200Z,42.70
2022-10-22T13:08:12.646Z,48.10
2022-10-22T13:10:41.761Z,41.43
2022-10-22T13:13:30.606Z,56.23
2022-10-22T13:16:21.337Z,47.33
2022-10-22T13:18:49.209Z,38.80
2022-10-22T13:21:48.769Z,48.63
2022-10-22T13:24:24.561Z,46.07
2022-10-22T13:26:54.482Z,37.83
2022-10-22T13:29:23.549Z,39.40
2022-10-22T13:31:52.912Z,47.23
2022-10-22T13:34:26.035Z,46.13
2022-10-22T13:36:53.614Z,46.97
2022-10-22T13:39:23.385Z,55.17
2022-10-22T13:41:51.634Z,42.07
2022-10-22T13:44:20.026Z,40.73
2022-10-22T13:46:48.595Z,45.67
2022-10-22T13:49:20.038Z,38.53
2022-10-22T13:51:47.726Z,32.27
2022-10-22T13:54:22.100Z,40.10
2022-10-22T13:56:49.768Z,39.67
2022-10-22T13:59:19.861Z,47.87
2022-10-22T14:01:50.223Z,63.77
2022-10-22T14:04:17.598Z,43.07
2022-10-22T14:06:45.193Z,40.00
2022-10-22T14:09:15.488Z,30.63
2022-10-22T14:11:43.290Z,44.03
2022-10-22T14:14:14.360Z,32.23
2022-10-22T14:16:45.000Z,22.77
2022-10-22T14:19:17.697Z,21.67
2022-10-22T14:21:45.069Z,29.03
2022-10-22T14:24:13.410Z,21.00
2022-10-22T14:26:41.325Z,37.60
2022-10-22T14:29:10.369Z,41.43
2022-10-22T14:31:44.413Z,37.43
2022-10-22T14:34:16.008Z,25.23
2022-10-22T14:36:44.401Z,17.63
2022-10-22T14:39:13.202Z,21.73
2022-10-22T14:41:41.687Z,29.97
2022-10-22T14:44:14.333Z,28.03
2022-10-22T14:46:44.355Z,28.30
2022-10-22T14:49:12.397Z,46.57
2022-10-22T14:51:39.622Z,19.73
2022-10-22T14:54:07.725Z,17.70
2022-10-22T14:59:02.997Z,27.57
2022-10-22T15:01:30.319Z,21.43
2022-10-22T15:03:57.869Z,18.53
2022-10-22T15:06:25.052Z,24.47
2022-10-22T15:08:53.096Z,24.30
2022-10-22T15:11:21.465Z,25.13
2022-10-22T15:13:49.043Z,28.30
2022-10-22T15:16:17.280Z,18.53
2022-10-22T15:18:45.284Z,18.67
2022-10-22T15:21:18.355Z,22.13
2022-10-22T15:23:46.147Z,29.83
2022-10-22T15:26:14.414Z,31.00
2022-10-22T15:28:42.192Z,26.87
2022-10-22T15:31:15.010Z,35.67
2022-10-22T15:33:43.598Z,17.40
2022-10-22T15:36:16.386Z,19.03
2022-10-22T15:38:44.757Z,19.50
2022-10-22T15:41:13.703Z,23.33
2022-10-22T15:43:41.268Z,19.77
2022-10-22T15:46:10.342Z,20.13
2022-10-22T15:48:38.335Z,16.70
2022-10-22T15:51:13.943Z,17.93
2022-10-22T15:53:41.801Z,27.17
2022-10-22T15:56:11.809Z,31.87
2022-10-22T15:58:40.245Z,22.23
2022-10-22T16:01:20.391Z,26.97
2022-10-22T16:03:59.881Z,28.87
2022-10-22T16:06:39.361Z,23.37
2022-10-22T16:09:13.890Z,63.43
2022-10-22T16:11:42.357Z,45.93
2022-10-22T16:14:15.344Z,43.83
2022-10-22T16:16:50.776Z,51.93
2022-10-22T16:19:20.560Z,29.00
2022-10-22T16:21:50.934Z,38.53
2022-10-22T16:24:20.139Z,28.67
2022-10-22T16:26:50.657Z,28.70
2022-10-22T16:29:19.134Z,27.17
2022-10-22T16:31:46.411Z,36.30
2022-10-22T16:34:14.142Z,52.90
2022-10-22T16:36:41.875Z,43.77
2022-10-22T16:39:09.804Z,37.50
2022-10-22T16:41:37.492Z,49.10
2022-10-22T16:44:08.107Z,57.20
2022-10-22T16:46:41.713Z,62.20
2022-10-22T16:49:13.488Z,73.57
2022-10-22T16:51:40.667Z,78.93
2022-10-22T16:54:11.298Z,77.70
2022-10-22T16:56:40.110Z,102.20
2022-10-22T16:59:08.062Z,89.27
2022-10-22T17:01:40.414Z,94.93
2022-10-22T17:04:08.938Z,119.40
2022-10-22T17:06:36.698Z,122.53
2022-10-22T17:09:05.093Z,223.90
2022-10-22T17:11:36.354Z,174.03
2022-10-22T17:14:06.322Z,105.83
2022-10-22T17:16:33.502Z,65.10
2022-10-22T17:19:03.890Z,60.77
2022-10-22T17:21:31.123Z,107.53
2022-10-22T17:23:58.776Z,137.60
2022-10-22T17:26:30.560Z,87.83
2022-10-22T17:28:58.468Z,103.63
2022-10-22T17:31:28.426Z,133.23
2022-10-22T17:33:57.486Z,98.63
2022-10-22T17:36:26.157Z,76.77
2022-10-22T17:38:58.012Z,64.90
2022-10-22T17:41:28.230Z,83.50
2022-10-22T17:43:56.786Z,58.83
2022-10-22T17:46:27.654Z,71.33
2022-10-22T17:48:57.651Z,86.60
2022-10-22T17:51:27.043Z,110.10
2022-10-22T17:53:55.069Z,97.13
2022-10-22T17:56:25.664Z,84.63
2022-10-22T17:58:54.227Z,90.10
2022-10-22T18:01:27.522Z,98.77
2022-10-22T18:03:59.394Z,66.47
2022-10-22T18:06:27.345Z,83.37
2022-10-22T18:08:55.061Z,73.50
2022-10-22T18:11:25.213Z,71.87
2022-10-22T18:13:56.903Z,85.40
2022-10-22T18:16:25.668Z,59.57
2022-10-22T18:18:55.487Z,70.33
2022-10-22T18:21:25.340Z,74.33
2022-10-22T18:23:53.781Z,78.63
2022-10-22T18:26:25.866Z,72.20
2022-10-22T18:28:57.186Z,59.53
2022-10-22T18:31:26.463Z,75.17
2022-10-22T18:33:55.728Z,66.70
2022-10-22T18:36:25.257Z,64.87
2022-10-22T18:39:01.835Z,67.40
2022-10-22T18:41:31.034Z,69.33
2022-10-22T18:44:02.051Z,88.87
2022-10-22T18:46:32.593Z,78.33
2022-10-22T18:49:01.265Z,59.00
2022-10-22T18:51:32.061Z,80.60
2022-10-22T18:54:05.705Z,80.70
2022-10-22T18:56:40.948Z,67.47
2022-10-22T18:59:17.454Z,71.47
2022-10-22T19:01:45.154Z,79.80
2022-10-22T19:04:14.370Z,84.37
2022-10-22T19:06:45.201Z,84.77
2022-10-22T19:09:15.169Z,94.80
2022-10-22T19:11:45.110Z,71.00
2022-10-22T19:14:14.335Z,102.27
2022-10-22T19:16:42.203Z,82.27
2022-10-22T19:19:09.765Z,89.07
2022-10-22T19:21:38.025Z,80.23
2022-10-22T19:24:06.645Z,81.40
2022-10-22T19:26:34.696Z,78.40
2022-10-22T19:29:03.191Z,73.40
2022-10-22T19:31:31.565Z,79.27
2022-10-22T19:34:01.448Z,69.20
2022-10-22T19:36:30.680Z,72.50
2022-10-22T19:38:58.981Z,64.00
2022-10-22T19:41:29.120Z,70.63
2022-10-22T19:43:58.580Z,62.93
2022-10-22T19:46:28.182Z,76.07
2022-10-22T19:48:57.489Z,70.53
2022-10-22T19:51:27.607Z,61.87
2022-10-22T19:54:00.540Z,59.17
2022-10-22T19:56:28.651Z,69.57
2022-10-22T19:58:57.013Z,68.20
2022-10-22T20:01:25.134Z,78.93
2022-10-22T20:03:54.153Z,71.33
2022-10-22T20:06:22.085Z,76.03
2022-10-22T20:08:53.720Z,62.50
2022-10-22T20:11:26.891Z,74.90
2022-10-22T20:13:56.245Z,72.97
2022-10-22T20:16:27.366Z,75.73
2022-10-22T20:18:55.807Z,83.10
2022-10-22T20:21:23.492Z,73.83
2022-10-22T20:23:54.737Z,84.80
2022-10-22T20:26:24.115Z,80.53
2022-10-22T20:28:52.602Z,81.93
2022-10-22T20:31:22.958Z,79.97
2022-10-22T20:33:51.137Z,74.90
2022-10-22T20:36:21.888Z,87.80
2022-10-22T20:38:51.732Z,80.00
2022-10-22T20:41:23.371Z,89.83
2022-10-22T20:43:52.018Z,105.43
2022-10-22T20:46:26.222Z,87.50
2022-10-22T20:48:58.790Z,82.23
2022-10-22T20:51:26.649Z,80.80
2022-10-22T20:53:54.955Z,80.00
2022-10-22T20:56:23.052Z,92.50
2022-10-22T20:58:56.784Z,83.07
2022-10-22T21:01:28.147Z,71.37
2022-10-22T21:03:55.807Z,83.57
2022-10-22T21:06:23.489Z,95.00
2022-10-22T21:08:51.801Z,82.10
2022-10-22T21:11:20.558Z,93.87
2022-10-22T21:13:48.730Z,81.87
2022-10-22T21:16:18.780Z,99.80
2022-10-22T21:18:47.619Z,104.93
2022-10-22T21:21:17.172Z,86.47
2022-10-22T21:23:44.858Z,97.33
2022-10-22T21:26:12.485Z,81.83
2022-10-22T21:28:40.347Z,78.60
2022-10-22T21:31:10.449Z,107.53
2022-10-22T21:33:39.561Z,85.77
2022-10-22T21:36:09.229Z,95.80
2022-10-22T21:38:38.066Z,82.37
2022-10-22T21:41:12.318Z,88.53
2022-10-22T21:43:41.374Z,88.10
2022-10-22T21:46:13.430Z,86.80
2022-10-22T21:48:41.094Z,76.40
2022-10-22T21:51:11.263Z,91.07
2022-10-22T21:53:39.231Z,74.83
2022-10-22T21:56:07.826Z,91.73
2022-10-22T21:58:36.343Z,83.27
2022-10-22T22:01:04.519Z,89.10
2022-10-22T22:03:32.013Z,77.17
2022-10-22T22:06:04.895Z,77.77
2022-10-22T22:08:33.270Z,100.20
2022-10-22T22:11:02.732Z,104.13
2022-10-22T22:13:30.189Z,105.80
2022-10-22T22:16:12.223Z,106.60
2022-10-22T22:18:41.159Z,108.83
2022-10-22T22:21:17.061Z,86.60
2022-10-22T22:23:46.455Z,83.30
2022-10-22T22:26:16.576Z,91.53
2022-10-22T22:28:44.292Z,91.27
2022-10-22T22:31:17.402Z,92.13
2022-10-22T22:33:45.452Z,105.13
2022-10-22T22:36:12.775Z,89.67
2022-10-22T22:38:40.834Z,83.23
2022-10-22T22:41:09.205Z,85.30
2022-10-22T22:43:37.734Z,101.47
2022-10-22T22:46:07.922Z,78.27
2022-10-22T22:48:35.407Z,87.17
2022-10-22T22:51:06.756Z,90.13
2022-10-22T22:53:35.285Z,77.13
2022-10-22T22:56:03.309Z,77.93
2022-10-22T22:58:31.105Z,84.70
2022-10-22T23:01:11.336Z,86.20
2022-10-22T23:03:39.352Z,81.47
2022-10-22T23:06:06.878Z,86.27
2022-10-22T23:08:34.997Z,78.47
2022-10-22T23:11:09.136Z,73.30
2022-10-22T23:13:37.599Z,76.80
2022-10-22T23:16:25.410Z,69.20
2022-10-22T23:18:54.596Z,74.60
2022-10-22T23:21:25.658Z,69.07
2022-10-22T23:23:56.159Z,62.33
2022-10-22T23:26:33.117Z,73.30
2022-10-22T23:29:06.616Z,67.83
2022-10-22T23:31:34.494Z,71.77
2022-10-22T23:34:01.918Z,65.60
2022-10-22T23:36:29.755Z,75.13
2022-10-22T23:38:57.593Z,73.90
2022-10-22T23:41:24.819Z,68.60
2022-10-22T23:43:52.306Z,68.03
2022-10-22T23:46:19.492Z,69.20
2022-10-22T23:48:46.891Z,63.97
2022-10-22T23:51:16.868Z,73.33
2022-10-22T23:53:45.268Z,70.17
2022-10-22T23:56:15.636Z,79.90
2022-10-22T23:58:43.800Z,64.77
